sensor_id;sensor_type;location;lat;lon;timestamp;temperature;humidity
57636;DHT22;43465;50.728;4.160;2022-12-18T00:00:46;0.20;99.90
57636;DHT22;43465;50.728;4.160;2022-12-18T00:03:13;0.40;99.90
57636;DHT22;43465;50.728;4.160;2022-12-18T00:05:49;0.40;99.90
57636;DHT22;43465;50.728;4.160;2022-12-18T00:08:16;0.30;99.90
57636;DHT22;43465;50.728;4.160;2022-12-18T00:10:43;0.30;99.90
57636;DHT22;43465;50.728;4.160;2022-12-18T00:13:09;0.30;99.90
57636;DHT22;43465;50.728;4.160;2022-12-18T00:15:36;0.30;99.90
57636;DHT22;43465;50.728;4.160;2022-12-18T00:18:02;0.30;99.90
57636;DHT22;43465;50.728;4.160;2022-12-18T00:20:27;0.20;99.90
57636;DHT22;43465;50.728;4.160;2022-12-18T00:22:54;0.00;99.90
57636;DHT22;43465;50.728;4.160;2022-12-18T00:25:20;0.00;99.90
57636;DHT22;43465;50.728;4.160;2022-12-18T00:27:45;0.00;99.90
57636;DHT22;43465;50.728;4.160;2022-12-18T00:30:11;-0.10;99.90
57636;DHT22;43465;50.728;4.160;2022-12-18T00:32:37;-0.10;99.90
57636;DHT22;43465;50.728;4.160;2022-12-18T00:35:04;-0.10;99.90
57636;DHT22;43465;50.728;4.160;2022-12-18T00:37:30;-0.10;99.90
57636;DHT22;43465;50.728;4.160;2022-12-18T00:39:56;0.00;99.90
57636;DHT22;43465;50.728;4.160;2022-12-18T00:42:22;0.20;99.90
57636;DHT22;43465;50.728;4.160;2022-12-18T00:45:06;0.30;99.90
57636;DHT22;43465;50.728;4.160;2022-12-18T00:47:32;0.30;99.90
57636;DHT22;43465;50.728;4.160;2022-12-18T00:49:57;0.30;99.90
57636;DHT22;43465;50.728;4.160;2022-12-18T00:52:23;0.20;99.90
57636;DHT22;43465;50.728;4.160;2022-12-18T00:54:49;0.10;99.90
57636;DHT22;43465;50.728;4.160;2022-12-18T00:57:14;-0.10;99.90
57636;DHT22;43465;50.728;4.160;2022-12-18T00:59:40;-0.30;99.90
57636;DHT22;43465;50.728;4.160;2022-12-18T01:02:05;-0.40;99.90
57636;DHT22;43465;50.728;4.160;2022-12-18T01:04:32;-0.50;99.90
57636;DHT22;43465;50.728;4.160;2022-12-18T01:06:58;-0.50;99.90
57636;DHT22;43465;50.728;4.160;2022-12-18T01:09:24;-0.40;99.90
57636;DHT22;43465;50.728;4.160;2022-12-18T01:11:49;-0.40;99.90
57636;DHT22;43465;50.728;4.160;2022-12-18T01:14:15;-0.20;99.90
57636;DHT22;43465;50.728;4.160;2022-12-18T01:16:40;-0.10;99.90
57636;DHT22;43465;50.728;4.160;2022-12-18T01:19:06;-0.30;99.90
57636;DHT22;43465;50.728;4.160;2022-12-18T01:21:32;-0.30;99.90
57636;DHT22;43465;50.728;4.160;2022-12-18T01:23:58;-0.30;99.90
57636;DHT22;43465;50.728;4.160;2022-12-18T01:26:24;-0.40;99.90
57636;DHT22;43465;50.728;4.160;2022-12-18T01:28:50;-0.50;99.90
57636;DHT22;43465;50.728;4.160;2022-12-18T01:31:22;-0.40;99.90
57636;DHT22;43465;50.728;4.160;2022-12-18T01:33:49;-0.50;99.90
57636;DHT22;43465;50.728;4.160;2022-12-18T01:36:16;-0.50;99.90
57636;DHT22;43465;50.728;4.160;2022-12-18T01:38:42;-0.50;99.90
57636;DHT22;43465;50.728;4.160;2022-12-18T01:41:08;-0.40;99.90
57636;DHT22;43465;50.728;4.160;2022-12-18T01:46:14;-0.40;99.90
57636;DHT22;43465;50.728;4.160;2022-12-18T01:48:40;-0.30;99.90
57636;DHT22;43465;50.728;4.160;2022-12-18T01:51:08;-0.20;99.90
57636;DHT22;43465;50.728;4.160;2022-12-18T01:53:36;-0.20;99.90
57636;DHT22;43465;50.728;4.160;2022-12-18T01:56:03;-0.30;99.90
57636;DHT22;43465;50.728;4.160;2022-12-18T02:01:16;-0.30;99.90
57636;DHT22;43465;50.728;4.160;2022-12-18T02:03:43;-0.20;99.90
57636;DHT22;43465;50.728;4.160;2022-12-18T02:09:08;-0.20;99.90
57636;DHT22;43465;50.728;4.160;2022-12-18T02:11:39;-0.30;99.90
57636;DHT22;43465;50.728;4.160;2022-12-18T02:14:45;-0.40;99.90
57636;DHT22;43465;50.728;4.160;2022-12-18T02:17:16;-0.60;99.90
57636;DHT22;43465;50.728;4.160;2022-12-18T02:20:18;-0.60;99.90
57636;DHT22;43465;50.728;4.160;2022-12-18T02:28:17;-0.70;99.90
57636;DHT22;43465;50.728;4.160;2022-12-18T02:30:47;-0.70;99.90
57636;DHT22;43465;50.728;4.160;2022-12-18T02:33:14;-0.70;99.90
57636;DHT22;43465;50.728;4.160;2022-12-18T02:35:41;-0.60;99.90
57636;DHT22;43465;50.728;4.160;2022-12-18T02:38:07;-0.60;99.90
57636;DHT22;43465;50.728;4.160;2022-12-18T02:40:33;-0.80;99.90
57636;DHT22;43465;50.728;4.160;2022-12-18T02:43:07;-0.80;99.90
57636;DHT22;43465;50.728;4.160;2022-12-18T02:45:32;-0.70;99.90
57636;DHT22;43465;50.728;4.160;2022-12-18T02:47:58;-0.70;99.90
57636;DHT22;43465;50.728;4.160;2022-12-18T02:50:35;-0.70;99.90
57636;DHT22;43465;50.728;4.160;2022-12-18T02:53:26;-0.80;99.90
57636;DHT22;43465;50.728;4.160;2022-12-18T02:56:12;-0.90;99.90
57636;DHT22;43465;50.728;4.160;2022-12-18T02:59:07;-0.90;99.90
57636;DHT22;43465;50.728;4.160;2022-12-18T03:04:23;-0.60;99.90
57636;DHT22;43465;50.728;4.160;2022-12-18T03:06:55;-0.60;99.90
57636;DHT22;43465;50.728;4.160;2022-12-18T03:09:28;-0.70;99.90
57636;DHT22;43465;50.728;4.160;2022-12-18T03:12:02;-0.70;99.90
57636;DHT22;43465;50.728;4.160;2022-12-18T03:14:54;-0.80;99.90
57636;DHT22;43465;50.728;4.160;2022-12-18T03:17:23;-0.80;99.90
57636;DHT22;43465;50.728;4.160;2022-12-18T03:19:51;-0.80;99.90
57636;DHT22;43465;50.728;4.160;2022-12-18T03:22:18;-0.70;99.90
57636;DHT22;43465;50.728;4.160;2022-12-18T03:24:45;-0.60;99.90
57636;DHT22;43465;50.728;4.160;2022-12-18T03:27:15;-0.70;99.90
57636;DHT22;43465;50.728;4.160;2022-12-18T03:29:47;-1.00;99.90
57636;DHT22;43465;50.728;4.160;2022-12-18T03:32:25;-1.20;99.90
57636;DHT22;43465;50.728;4.160;2022-12-18T03:34:53;-1.40;99.90
57636;DHT22;43465;50.728;4.160;2022-12-18T03:37:20;-1.50;99.90
57636;DHT22;43465;50.728;4.160;2022-12-18T03:39:46;-1.50;99.90
57636;DHT22;43465;50.728;4.160;2022-12-18T03:42:28;-1.30;99.90
57636;DHT22;43465;50.728;4.160;2022-12-18T03:48:34;-1.40;99.90
57636;DHT22;43465;50.728;4.160;2022-12-18T03:50:46;-1.40;99.90
57636;DHT22;43465;50.728;4.160;2022-12-18T03:53:42;-1.50;99.90
57636;DHT22;43465;50.728;4.160;2022-12-18T03:56:13;-1.50;99.90
57636;DHT22;43465;50.728;4.160;2022-12-18T03:58:41;-1.60;99.90
57636;DHT22;43465;50.728;4.160;2022-12-18T04:01:09;-1.60;99.90
57636;DHT22;43465;50.728;4.160;2022-12-18T04:03:37;-1.50;99.90
57636;DHT22;43465;50.728;4.160;2022-12-18T04:06:03;-1.30;99.90
57636;DHT22;43465;50.728;4.160;2022-12-18T04:08:30;-1.20;99.90
57636;DHT22;43465;50.728;4.160;2022-12-18T04:10:56;-1.10;99.90
57636;DHT22;43465;50.728;4.160;2022-12-18T04:13:33;-1.10;99.90
57636;DHT22;43465;50.728;4.160;2022-12-18T04:15:59;-1.10;99.90
57636;DHT22;43465;50.728;4.160;2022-12-18T04:18:25;-1.20;99.90
57636;DHT22;43465;50.728;4.160;2022-12-18T04:20:51;-1.40;99.90
57636;DHT22;43465;50.728;4.160;2022-12-18T04:23:16;-1.60;99.90
57636;DHT22;43465;50.728;4.160;2022-12-18T04:25:43;-1.60;99.90
57636;DHT22;43465;50.728;4.160;2022-12-18T04:28:09;-1.60;99.90
57636;DHT22;43465;50.728;4.160;2022-12-18T04:30:34;-1.60;99.90
57636;DHT22;43465;50.728;4.160;2022-12-18T04:33:00;-1.70;99.90
57636;DHT22;43465;50.728;4.160;2022-12-18T04:35:26;-1.60;99.90
57636;DHT22;43465;50.728;4.160;2022-12-18T04:37:51;-1.70;99.90
57636;DHT22;43465;50.728;4.160;2022-12-18T04:40:17;-1.60;99.90
57636;DHT22;43465;50.728;4.160;2022-12-18T04:42:46;-1.70;99.90
57636;DHT22;43465;50.728;4.160;2022-12-18T04:45:12;-1.70;99.90
57636;DHT22;43465;50.728;4.160;2022-12-18T04:47:37;-1.70;99.90
57636;DHT22;43465;50.728;4.160;2022-12-18T04:50:04;-1.70;99.90
57636;DHT22;43465;50.728;4.160;2022-12-18T04:52:31;-1.80;99.90
57636;DHT22;43465;50.728;4.160;2022-12-18T04:54:56;-2.10;99.90
57636;DHT22;43465;50.728;4.160;2022-12-18T04:57:22;-2.10;99.90
57636;DHT22;43465;50.728;4.160;2022-12-18T04:59:48;-2.00;99.90
57636;DHT22;43465;50.728;4.160;2022-12-18T05:02:14;-2.00;99.90
57636;DHT22;43465;50.728;4.160;2022-12-18T05:04:39;-2.10;99.90
57636;DHT22;43465;50.728;4.160;2022-12-18T05:07:05;-2.20;99.90
57636;DHT22;43465;50.728;4.160;2022-12-18T05:09:30;-2.10;99.90
57636;DHT22;43465;50.728;4.160;2022-12-18T05:11:56;-1.90;99.90
57636;DHT22;43465;50.728;4.160;2022-12-18T05:14:22;-1.90;99.90
57636;DHT22;43465;50.728;4.160;2022-12-18T05:16:48;-1.70;99.90
57636;DHT22;43465;50.728;4.160;2022-12-18T05:19:13;-1.60;99.90
57636;DHT22;43465;50.728;4.160;2022-12-18T05:21:39;-1.60;99.90
57636;DHT22;43465;50.728;4.160;2022-12-18T05:24:05;-1.40;99.90
57636;DHT22;43465;50.728;4.160;2022-12-18T05:26:31;-1.30;99.90
57636;DHT22;43465;50.728;4.160;2022-12-18T05:28:56;-1.20;99.90
57636;DHT22;43465;50.728;4.160;2022-12-18T05:31:22;-1.20;99.90
57636;DHT22;43465;50.728;4.160;2022-12-18T05:33:49;-1.40;99.90
57636;DHT22;43465;50.728;4.160;2022-12-18T05:36:15;-1.50;99.90
57636;DHT22;43465;50.728;4.160;2022-12-18T05:38:41;-1.70;99.90
57636;DHT22;43465;50.728;4.160;2022-12-18T05:41:07;-1.70;99.90
57636;DHT22;43465;50.728;4.160;2022-12-18T05:43:38;-1.60;99.90
57636;DHT22;43465;50.728;4.160;2022-12-18T05:46:08;-1.50;99.90
57636;DHT22;43465;50.728;4.160;2022-12-18T05:48:34;-1.30;99.90
57636;DHT22;43465;50.728;4.160;2022-12-18T05:51:08;-1.30;99.90
57636;DHT22;43465;50.728;4.160;2022-12-18T05:53:35;-1.40;99.90
57636;DHT22;43465;50.728;4.160;2022-12-18T05:56:03;-1.40;99.90
57636;DHT22;43465;50.728;4.160;2022-12-18T05:58:29;-1.40;99.90
57636;DHT22;43465;50.728;4.160;2022-12-18T06:00:56;-1.50;99.90
57636;DHT22;43465;50.728;4.160;2022-12-18T06:03:21;-1.60;99.90
57636;DHT22;43465;50.728;4.160;2022-12-18T06:05:47;-1.70;99.90
57636;DHT22;43465;50.728;4.160;2022-12-18T06:08:13;-1.70;99.90
57636;DHT22;43465;50.728;4.160;2022-12-18T06:10:40;-1.80;99.90
57636;DHT22;43465;50.728;4.160;2022-12-18T06:13:06;-1.80;99.90
57636;DHT22;43465;50.728;4.160;2022-12-18T06:15:32;-1.70;99.90
57636;DHT22;43465;50.728;4.160;2022-12-18T06:17:58;-1.70;99.90
57636;DHT22;43465;50.728;4.160;2022-12-18T06:20:23;-1.60;99.90
57636;DHT22;43465;50.728;4.160;2022-12-18T06:22:49;-1.60;99.90
57636;DHT22;43465;50.728;4.160;2022-12-18T06:25:15;-1.40;99.90
57636;DHT22;43465;50.728;4.160;2022-12-18T06:27:41;-1.30;99.90
57636;DHT22;43465;50.728;4.160;2022-12-18T06:30:07;-1.10;99.90
57636;DHT22;43465;50.728;4.160;2022-12-18T06:32:33;-1.10;99.90
57636;DHT22;43465;50.728;4.160;2022-12-18T06:34:58;-1.10;99.90
57636;DHT22;43465;50.728;4.160;2022-12-18T06:37:24;-1.10;99.90
57636;DHT22;43465;50.728;4.160;2022-12-18T06:39:52;-1.50;99.90
57636;DHT22;43465;50.728;4.160;2022-12-18T06:42:17;-1.60;99.90
57636;DHT22;43465;50.728;4.160;2022-12-18T06:44:43;-1.70;99.90
57636;DHT22;43465;50.728;4.160;2022-12-18T06:47:09;-1.60;99.90
57636;DHT22;43465;50.728;4.160;2022-12-18T06:49:34;-1.70;99.90
57636;DHT22;43465;50.728;4.160;2022-12-18T06:52:00;-1.70;99.90
57636;DHT22;43465;50.728;4.160;2022-12-18T06:54:25;-1.80;99.90
57636;DHT22;43465;50.728;4.160;2022-12-18T06:56:51;-1.80;99.90
57636;DHT22;43465;50.728;4.160;2022-12-18T06:59:17;-1.80;99.90
57636;DHT22;43465;50.728;4.160;2022-12-18T07:01:42;-1.60;99.90
57636;DHT22;43465;50.728;4.160;2022-12-18T07:04:08;-1.70;99.90
57636;DHT22;43465;50.728;4.160;2022-12-18T07:06:33;-1.50;99.90
57636;DHT22;43465;50.728;4.160;2022-12-18T07:08:59;-1.30;99.90
57636;DHT22;43465;50.728;4.160;2022-12-18T07:11:25;-1.40;99.90
57636;DHT22;43465;50.728;4.160;2022-12-18T07:13:52;-1.50;99.90
57636;DHT22;43465;50.728;4.160;2022-12-18T07:16:19;-1.50;99.90
57636;DHT22;43465;50.728;4.160;2022-12-18T07:18:45;-1.50;99.90
57636;DHT22;43465;50.728;4.160;2022-12-18T07:21:13;-1.40;99.90
57636;DHT22;43465;50.728;4.160;2022-12-18T07:23:39;-1.40;99.90
57636;DHT22;43465;50.728;4.160;2022-12-18T07:26:07;-1.40;99.90
57636;DHT22;43465;50.728;4.160;2022-12-18T07:28:33;-1.40;99.90
57636;DHT22;43465;50.728;4.160;2022-12-18T07:31:08;-1.40;99.90
57636;DHT22;43465;50.728;4.160;2022-12-18T07:33:34;-1.40;99.90
57636;DHT22;43465;50.728;4.160;2022-12-18T07:36:04;-1.50;99.90
57636;DHT22;43465;50.728;4.160;2022-12-18T07:38:31;-1.50;99.90
57636;DHT22;43465;50.728;4.160;2022-12-18T07:41:16;-1.40;99.90
57636;DHT22;43465;50.728;4.160;2022-12-18T07:43:42;-1.40;99.90
57636;DHT22;43465;50.728;4.160;2022-12-18T07:46:08;-1.30;99.90
57636;DHT22;43465;50.728;4.160;2022-12-18T07:48:34;-1.30;99.90
57636;DHT22;43465;50.728;4.160;2022-12-18T07:51:01;-1.30;99.90
57636;DHT22;43465;50.728;4.160;2022-12-18T07:53:27;-1.20;99.90
57636;DHT22;43465;50.728;4.160;2022-12-18T07:56:00;-1.20;99.90
57636;DHT22;43465;50.728;4.160;2022-12-18T07:58:28;-1.10;99.90
57636;DHT22;43465;50.728;4.160;2022-12-18T08:00:54;-1.20;99.90
57636;DHT22;43465;50.728;4.160;2022-12-18T08:03:20;-1.20;99.90
57636;DHT22;43465;50.728;4.160;2022-12-18T08:05:45;-1.20;99.90
57636;DHT22;43465;50.728;4.160;2022-12-18T08:08:11;-1.20;99.90
57636;DHT22;43465;50.728;4.160;2022-12-18T08:10:37;-1.20;99.90
57636;DHT22;43465;50.728;4.160;2022-12-18T08:13:03;-1.10;99.90
57636;DHT22;43465;50.728;4.160;2022-12-18T08:15:29;-1.10;99.90
57636;DHT22;43465;50.728;4.160;2022-12-18T08:17:57;-1.00;99.90
57636;DHT22;43465;50.728;4.160;2022-12-18T08:20:23;-0.80;99.90
57636;DHT22;43465;50.728;4.160;2022-12-18T08:22:49;-0.60;99.90
57636;DHT22;43465;50.728;4.160;2022-12-18T08:25:14;-0.40;99.90
57636;DHT22;43465;50.728;4.160;2022-12-18T08:27:40;-0.40;99.90
57636;DHT22;43465;50.728;4.160;2022-12-18T08:30:06;-0.30;99.90
57636;DHT22;43465;50.728;4.160;2022-12-18T08:32:32;-0.20;99.90
57636;DHT22;43465;50.728;4.160;2022-12-18T08:34:58;-0.20;99.90
57636;DHT22;43465;50.728;4.160;2022-12-18T08:37:24;-0.30;99.90
57636;DHT22;43465;50.728;4.160;2022-12-18T08:39:50;-0.20;99.90
57636;DHT22;43465;50.728;4.160;2022-12-18T08:42:16;-0.20;99.90
57636;DHT22;43465;50.728;4.160;2022-12-18T08:44:59;-0.10;99.90
57636;DHT22;43465;50.728;4.160;2022-12-18T08:47:25;-0.10;99.90
57636;DHT22;43465;50.728;4.160;2022-12-18T08:49:51;-0.10;99.90
57636;DHT22;43465;50.728;4.160;2022-12-18T08:52:17;-0.10;99.90
57636;DHT22;43465;50.728;4.160;2022-12-18T08:54:42;0.10;99.90
57636;DHT22;43465;50.728;4.160;2022-12-18T08:57:08;0.20;99.90
57636;DHT22;43465;50.728;4.160;2022-12-18T08:59:34;0.30;99.90
57636;DHT22;43465;50.728;4.160;2022-12-18T09:01:59;0.40;99.90
57636;DHT22;43465;50.728;4.160;2022-12-18T09:04:25;0.40;99.90
57636;DHT22;43465;50.728;4.160;2022-12-18T09:06:51;0.40;99.90
57636;DHT22;43465;50.728;4.160;2022-12-18T09:09:16;0.40;99.90
57636;DHT22;43465;50.728;4.160;2022-12-18T09:11:42;0.40;99.90
57636;DHT22;43465;50.728;4.160;2022-12-18T09:14:09;0.40;99.90
57636;DHT22;43465;50.728;4.160;2022-12-18T09:16:35;0.40;99.90
57636;DHT22;43465;50.728;4.160;2022-12-18T09:19:02;0.40;99.90
57636;DHT22;43465;50.728;4.160;2022-12-18T09:21:33;0.40;99.90
57636;DHT22;43465;50.728;4.160;2022-12-18T09:24:00;0.60;99.90
57636;DHT22;43465;50.728;4.160;2022-12-18T09:26:26;0.70;99.90
57636;DHT22;43465;50.728;4.160;2022-12-18T09:28:53;0.70;99.90
57636;DHT22;43465;50.728;4.160;2022-12-18T09:31:21;0.80;99.90
57636;DHT22;43465;50.728;4.160;2022-12-18T09:33:47;1.00;99.90
57636;DHT22;43465;50.728;4.160;2022-12-18T09:36:15;1.00;99.90
57636;DHT22;43465;50.728;4.160;2022-12-18T09:38:41;1.20;99.90
57636;DHT22;43465;50.728;4.160;2022-12-18T09:41:45;1.10;99.90
57636;DHT22;43465;50.728;4.160;2022-12-18T09:49:23;1.40;99.90
57636;DHT22;43465;50.728;4.160;2022-12-18T09:52:02;1.50;99.90
57636;DHT22;43465;50.728;4.160;2022-12-18T09:54:39;1.50;99.90
57636;DHT22;43465;50.728;4.160;2022-12-18T09:57:05;1.60;99.90
57636;DHT22;43465;50.728;4.160;2022-12-18T09:59:37;1.60;99.90
57636;DHT22;43465;50.728;4.160;2022-12-18T10:02:19;1.50;99.90
57636;DHT22;43465;50.728;4.160;2022-12-18T10:07:41;1.60;99.90
57636;DHT22;43465;50.728;4.160;2022-12-18T10:10:23;1.70;99.90
57636;DHT22;43465;50.728;4.160;2022-12-18T10:16:01;1.80;99.90
57636;DHT22;43465;50.728;4.160;2022-12-18T10:21:23;1.90;99.90
57636;DHT22;43465;50.728;4.160;2022-12-18T10:26:17;2.10;99.90
57636;DHT22;43465;50.728;4.160;2022-12-18T10:28:43;2.10;99.90
57636;DHT22;43465;50.728;4.160;2022-12-18T10:31:18;2.20;99.90
57636;DHT22;43465;50.728;4.160;2022-12-18T10:33:44;2.20;99.90
57636;DHT22;43465;50.728;4.160;2022-12-18T10:36:10;2.20;99.90
57636;DHT22;43465;50.728;4.160;2022-12-18T10:38:36;2.30;99.90
57636;DHT22;43465;50.728;4.160;2022-12-18T10:43:45;2.40;99.90
57636;DHT22;43465;50.728;4.160;2022-12-18T10:46:12;2.30;99.90
57636;DHT22;43465;50.728;4.160;2022-12-18T10:48:56;2.30;99.90
57636;DHT22;43465;50.728;4.160;2022-12-18T10:51:24;2.40;99.90
57636;DHT22;43465;50.728;4.160;2022-12-18T10:54:03;2.30;99.90
57636;DHT22;43465;50.728;4.160;2022-12-18T10:56:31;2.30;99.90
57636;DHT22;43465;50.728;4.160;2022-12-18T10:59:07;2.50;99.90
57636;DHT22;43465;50.728;4.160;2022-12-18T11:01:54;2.50;99.90
57636;DHT22;43465;50.728;4.160;2022-12-18T11:04:23;2.50;99.90
57636;DHT22;43465;50.728;4.160;2022-12-18T11:07:02;2.60;99.90
57636;DHT22;43465;50.728;4.160;2022-12-18T11:09:34;2.60;99.90
57636;DHT22;43465;50.728;4.160;2022-12-18T11:12:17;2.70;99.90
57636;DHT22;43465;50.728;4.160;2022-12-18T11:14:54;2.80;99.90
57636;DHT22;43465;50.728;4.160;2022-12-18T11:17:28;2.90;99.90
57636;DHT22;43465;50.728;4.160;2022-12-18T11:20:00;2.90;99.90
57636;DHT22;43465;50.728;4.160;2022-12-18T11:22:31;2.90;99.90
57636;DHT22;43465;50.728;4.160;2022-12-18T11:25:17;3.00;99.90
57636;DHT22;43465;50.728;4.160;2022-12-18T11:28:00;3.00;99.90
57636;DHT22;43465;50.728;4.160;2022-12-18T11:30:31;3.10;99.90
57636;DHT22;43465;50.728;4.160;2022-12-18T11:33:19;3.10;99.90
57636;DHT22;43465;50.728;4.160;2022-12-18T11:35:55;3.20;99.90
57636;DHT22;43465;50.728;4.160;2022-12-18T11:38:35;3.20;99.90
57636;DHT22;43465;50.728;4.160;2022-12-18T11:41:19;3.20;99.90
57636;DHT22;43465;50.728;4.160;2022-12-18T11:43:54;3.20;99.90
57636;DHT22;43465;50.728;4.160;2022-12-18T11:46:37;3.20;99.90
57636;DHT22;43465;50.728;4.160;2022-12-18T11:49:22;3.20;99.90
57636;DHT22;43465;50.728;4.160;2022-12-18T11:52:04;3.10;99.90
57636;DHT22;43465;50.728;4.160;2022-12-18T11:54:31;3.10;99.90
57636;DHT22;43465;50.728;4.160;2022-12-18T12:00:19;3.10;99.90
57636;DHT22;43465;50.728;4.160;2022-12-18T12:03:06;3.10;99.90
57636;DHT22;43465;50.728;4.160;2022-12-18T12:05:42;2.90;99.90
57636;DHT22;43465;50.728;4.160;2022-12-18T12:08:46;2.80;99.90
57636;DHT22;43465;50.728;4.160;2022-12-18T12:22:06;2.70;99.90
57636;DHT22;43465;50.728;4.160;2022-12-18T12:24:39;2.70;99.90
57636;DHT22;43465;50.728;4.160;2022-12-18T12:30:11;2.60;99.90
57636;DHT22;43465;50.728;4.160;2022-12-18T12:38:11;2.60;99.90
57636;DHT22;43465;50.728;4.160;2022-12-18T12:40:46;2.70;99.90
57636;DHT22;43465;50.728;4.160;2022-12-18T12:43:24;2.70;99.90
57636;DHT22;43465;50.728;4.160;2022-12-18T12:45:58;2.70;99.90
57636;DHT22;43465;50.728;4.160;2022-12-18T12:50:51;2.70;99.90
57636;DHT22;43465;50.728;4.160;2022-12-18T12:53:26;2.70;99.90
57636;DHT22;43465;50.728;4.160;2022-12-18T12:55:54;2.70;99.90
57636;DHT22;43465;50.728;4.160;2022-12-18T13:01:39;2.80;99.90
57636;DHT22;43465;50.728;4.160;2022-12-18T13:07:29;2.90;99.90
57636;DHT22;43465;50.728;4.160;2022-12-18T13:20:45;2.90;99.90
57636;DHT22;43465;50.728;4.160;2022-12-18T13:33:45;2.90;99.90
57636;DHT22;43465;50.728;4.160;2022-12-18T13:36:27;2.80;99.90
57636;DHT22;43465;50.728;4.160;2022-12-18T13:41:43;2.80;99.90
57636;DHT22;43465;50.728;4.160;2022-12-18T13:44:34;2.80;99.90
57636;DHT22;43465;50.728;4.160;2022-12-18T13:47:00;2.70;99.90
57636;DHT22;43465;50.728;4.160;2022-12-18T13:49:36;2.70;99.90
57636;DHT22;43465;50.728;4.160;2022-12-18T13:52:18;2.70;99.90
57636;DHT22;43465;50.728;4.160;2022-12-18T13:54:49;2.70;99.90
57636;DHT22;43465;50.728;4.160;2022-12-18T13:57:28;2.70;99.90
57636;DHT22;43465;50.728;4.160;2022-12-18T13:59:55;2.60;99.90
57636;DHT22;43465;50.728;4.160;2022-12-18T14:02:24;2.70;99.90
57636;DHT22;43465;50.728;4.160;2022-12-18T14:04:51;2.60;99.90
57636;DHT22;43465;50.728;4.160;2022-12-18T14:07:22;2.60;99.90
57636;DHT22;43465;50.728;4.160;2022-12-18T14:10:00;2.60;99.90
57636;DHT22;43465;50.728;4.160;2022-12-18T14:12:33;2.60;99.90
57636;DHT22;43465;50.728;4.160;2022-12-18T14:15:31;2.60;99.90
57636;DHT22;43465;50.728;4.160;2022-12-18T14:20:34;2.50;99.90
57636;DHT22;43465;50.728;4.160;2022-12-18T14:23:00;2.50;99.90
57636;DHT22;43465;50.728;4.160;2022-12-18T14:25:27;2.40;99.90
57636;DHT22;43465;50.728;4.160;2022-12-18T14:28:08;2.40;99.90
57636;DHT22;43465;50.728;4.160;2022-12-18T14:30:42;2.30;99.90
57636;DHT22;43465;50.728;4.160;2022-12-18T14:35:39;2.40;99.90
57636;DHT22;43465;50.728;4.160;2022-12-18T14:40:56;2.40;99.90
57636;DHT22;43465;50.728;4.160;2022-12-18T14:43:22;2.50;99.90
57636;DHT22;43465;50.728;4.160;2022-12-18T14:45:48;2.40;99.90
57636;DHT22;43465;50.728;4.160;2022-12-18T14:51:06;2.30;99.90
57636;DHT22;43465;50.728;4.160;2022-12-18T14:53:39;2.30;99.90
57636;DHT22;43465;50.728;4.160;2022-12-18T14:56:33;2.40;99.90
57636;DHT22;43465;50.728;4.160;2022-12-18T14:59:02;2.40;99.90
57636;DHT22;43465;50.728;4.160;2022-12-18T15:01:36;2.50;99.90
57636;DHT22;43465;50.728;4.160;2022-12-18T15:04:03;2.50;99.90
57636;DHT22;43465;50.728;4.160;2022-12-18T15:06:36;2.50;99.90
57636;DHT22;43465;50.728;4.160;2022-12-18T15:09:24;2.50;99.90
57636;DHT22;43465;50.728;4.160;2022-12-18T15:11:56;2.50;99.90
57636;DHT22;43465;50.728;4.160;2022-12-18T15:14:42;2.50;99.90
57636;DHT22;43465;50.728;4.160;2022-12-18T15:17:19;2.40;99.90
57636;DHT22;43465;50.728;4.160;2022-12-18T15:19:47;2.50;99.90
57636;DHT22;43465;50.728;4.160;2022-12-18T15:24:50;2.40;99.90
57636;DHT22;43465;50.728;4.160;2022-12-18T15:30:23;2.40;99.90
57636;DHT22;43465;50.728;4.160;2022-12-18T15:32:48;2.40;99.90
57636;DHT22;43465;50.728;4.160;2022-12-18T15:35:17;2.60;99.90
57636;DHT22;43465;50.728;4.160;2022-12-18T15:37:44;2.70;99.90
57636;DHT22;43465;50.728;4.160;2022-12-18T15:40:14;2.70;99.90
57636;DHT22;43465;50.728;4.160;2022-12-18T15:42:41;2.80;99.90
57636;DHT22;43465;50.728;4.160;2022-12-18T15:45:26;2.80;99.90
57636;DHT22;43465;50.728;4.160;2022-12-18T15:47:52;2.90;99.90
57636;DHT22;43465;50.728;4.160;2022-12-18T15:50:17;3.00;99.90
57636;DHT22;43465;50.728;4.160;2022-12-18T15:52:45;3.00;99.90
57636;DHT22;43465;50.728;4.160;2022-12-18T15:55:19;3.00;99.90
57636;DHT22;43465;50.728;4.160;2022-12-18T15:58:04;3.00;99.90
57636;DHT22;43465;50.728;4.160;2022-12-18T16:00:31;3.00;99.90
57636;DHT22;43465;50.728;4.160;2022-12-18T16:02:57;3.00;99.90
57636;DHT22;43465;50.728;4.160;2022-12-18T16:05:23;3.00;99.90
57636;DHT22;43465;50.728;4.160;2022-12-18T16:07:49;3.00;99.90
57636;DHT22;43465;50.728;4.160;2022-12-18T16:10:15;3.10;99.90
57636;DHT22;43465;50.728;4.160;2022-12-18T16:12:41;3.20;99.90
57636;DHT22;43465;50.728;4.160;2022-12-18T16:15:10;3.30;99.90
57636;DHT22;43465;50.728;4.160;2022-12-18T16:17:36;3.30;99.90
57636;DHT22;43465;50.728;4.160;2022-12-18T16:20:02;3.20;99.90
57636;DHT22;43465;50.728;4.160;2022-12-18T16:22:30;3.30;99.90
57636;DHT22;43465;50.728;4.160;2022-12-18T16:24:56;3.40;99.90
57636;DHT22;43465;50.728;4.160;2022-12-18T16:27:23;3.40;99.90
57636;DHT22;43465;50.728;4.160;2022-12-18T16:29:49;3.40;99.90
57636;DHT22;43465;50.728;4.160;2022-12-18T16:32:17;3.40;99.90
57636;DHT22;43465;50.728;4.160;2022-12-18T16:34:44;3.40;99.90
57636;DHT22;43465;50.728;4.160;2022-12-18T16:37:12;3.40;99.90
57636;DHT22;43465;50.728;4.160;2022-12-18T16:39:38;3.40;99.90
57636;DHT22;43465;50.728;4.160;2022-12-18T16:42:14;3.40;99.90
57636;DHT22;43465;50.728;4.160;2022-12-18T16:44:42;3.50;99.90
57636;DHT22;43465;50.728;4.160;2022-12-18T16:47:08;3.50;99.90
57636;DHT22;43465;50.728;4.160;2022-12-18T16:49:34;3.50;99.90
57636;DHT22;43465;50.728;4.160;2022-12-18T16:52:00;3.50;99.90
57636;DHT22;43465;50.728;4.160;2022-12-18T16:54:25;3.50;99.90
57636;DHT22;43465;50.728;4.160;2022-12-18T16:56:54;3.50;99.90
57636;DHT22;43465;50.728;4.160;2022-12-18T16:59:20;3.50;99.90
57636;DHT22;43465;50.728;4.160;2022-12-18T17:01:46;3.50;99.90
57636;DHT22;43465;50.728;4.160;2022-12-18T17:04:11;3.50;99.90
57636;DHT22;43465;50.728;4.160;2022-12-18T17:06:43;3.50;99.90
57636;DHT22;43465;50.728;4.160;2022-12-18T17:09:13;3.50;99.90
57636;DHT22;43465;50.728;4.160;2022-12-18T17:11:41;3.60;99.90
57636;DHT22;43465;50.728;4.160;2022-12-18T17:14:08;3.60;99.90
57636;DHT22;43465;50.728;4.160;2022-12-18T17:16:34;3.60;99.90
57636;DHT22;43465;50.728;4.160;2022-12-18T17:19:00;3.60;99.90
57636;DHT22;43465;50.728;4.160;2022-12-18T17:21:26;3.60;99.90
57636;DHT22;43465;50.728;4.160;2022-12-18T17:23:51;3.60;99.90
57636;DHT22;43465;50.728;4.160;2022-12-18T17:26:17;3.60;99.90
57636;DHT22;43465;50.728;4.160;2022-12-18T17:28:43;3.60;99.90
57636;DHT22;43465;50.728;4.160;2022-12-18T17:31:16;3.70;99.90
57636;DHT22;43465;50.728;4.160;2022-12-18T17:33:43;3.70;99.90
57636;DHT22;43465;50.728;4.160;2022-12-18T17:36:09;3.70;99.90
57636;DHT22;43465;50.728;4.160;2022-12-18T17:38:35;3.60;99.90
57636;DHT22;43465;50.728;4.160;2022-12-18T17:41:02;3.60;99.90
57636;DHT22;43465;50.728;4.160;2022-12-18T17:43:28;3.70;99.90